44XS weather

3 Mill Ranch Airport
Mountain Home, Texas, United States

Public forecast

Using degrees Fahrenheit for public forecast. Weather courtesy of forecast.io.

Closest aviation weather report (METAR) to 3 Mill Ranch Airport

Closest report is Kimble County Airport, 20.3 nm (37.5 km) NW. Retrieved 2019/10/14 03:51 UTC (38 minutes ago):

KJCT 140351Z AUTO 22004KT 10SM CLR 20/09 A3004 RMK AO2 RAE0257 SLP144 P0000 T02000094

Closest aviation forecast (TAF) to 3 Mill Ranch Airport

Closest forecast is Kimble County Airport, 20.3 nm (37.5 km) NW. Retrieved 2019-10-14 00:22 UTC (4 hours ago):

TAF KJCT 132320Z 1400/1424 21010KT P6SM BKN250 FM140200 VRB05KT P6SM SCT090 BKN250 FM141500 20007KT P6SM VCSH BKN025 FM142000 20007KT P6SM BKN050